This is the latest recevied weather packets stored in our database for station/object SV9TNF-57. If no packets are shown the sender has not sent any weather packets the latest 10 day(s).
| Time | Temp. | Humidity | Pressure | Rain* | Wind** | Luminosity | Snow |
|---|---|---|---|---|---|---|---|
| 1788634670 | 26.11° C | 49% | 997.8 hPa | 0 mm | 4.02 m/s, 314° | - | - |
| 1788634370 | 26.11° C | 51% | 997.9 hPa | 0 mm | 4.92 m/s, 338° | - | - |
| 1788634070 | 26.11° C | 51% | 998 hPa | 0 mm | 3.58 m/s, 283° | - | - |
| 1788633770 | 26.67° C | 50% | 998.1 hPa | 0 mm | 2.68 m/s, 270° | - | - |
| 1788633470 | 26.67° C | 50% | 998 hPa | 0 mm | 0.89 m/s, 294° | - | - |
| 1788633170 | 26.11° C | 50% | 998.1 hPa | 0 mm | 2.68 m/s, 338° | - | - |
| 1788632870 | 26.11° C | 52% | 998 hPa | 0 mm | 0.45 m/s, 275° | - | - |
| 1788632570 | 25.56° C | 52% | 997.9 hPa | 0 mm | 0.89 m/s, 317° | - | - |
| 1788632270 | 25.56° C | 55% | 997.8 hPa | 0 mm | 0.89 m/s, 322° | - | - |
| 1788631969 | 26.11° C | 54% | 997.7 hPa | 0 mm | 0.45 m/s, 259° | - | - |
| 1788631670 | 26.11° C | 53% | 997.8 hPa | 0 mm | 0 m/s | - | - |
| 1788631369 | 26.11° C | 52% | 997.6 hPa | 0 mm | 0.89 m/s, 315° | - | - |
| 1788631069 | 26.11° C | 53% | 997.7 hPa | 0 mm | 0 m/s | - | - |
| 1788630769 | 26.11° C | 53% | 997.5 hPa | 0 mm | 0 m/s | - | - |
| 1788630469 | 26.11° C | 53% | 997.5 hPa | 0 mm | 0.45 m/s, 258° | - | - |
| 1788630169 | 26.11° C | 53% | 997.6 hPa | 0 mm | 1.79 m/s, 286° | - | - |
| 1788629869 | 26.11° C | 53% | 997.8 hPa | 0 mm | 0 m/s | - | - |
| 1788629569 | 26.11° C | 53% | 997.6 hPa | 0 mm | 0.45 m/s, 281° | - | - |
| 1788629269 | 26.11° C | 53% | 997.6 hPa | 0 mm | 0 m/s | - | - |
| 1788628968 | 26.67° C | 52% | 997.6 hPa | 0 mm | 0 m/s | - | - |
| 1788628668 | 26.67° C | 52% | 997.5 hPa | 0 mm | 0.45 m/s, 315° | - | - |
| 1788628368 | 26.67° C | 51% | 997.6 hPa | 0 mm | 0.45 m/s, 338° | - | - |
| 1788628068 | 26.67° C | 51% | 997.7 hPa | 0 mm | 0 m/s | - | - |
| 1788627802 | 26.67° C | 51% | 997.4 hPa | 0 mm | 0.45 m/s, 306° | - | - |
| 1788627468 | 27.22° C | 51% | 997.5 hPa | 0 mm | 0 m/s | - | - |
* Rain latest hour (hover to see other rain measurements)
** Current wind speed in m/s (hover to see current wind gust speed)